createdAt,value
2023-04-13T00:01:45.795Z,0.40
2023-04-13T00:07:49.521Z,0.40
2023-04-13T00:13:55.401Z,0.88
2023-04-13T00:20:00.271Z,0.77
2023-04-13T00:26:04.278Z,0.80
2023-04-13T00:32:07.794Z,0.40
2023-04-13T00:38:12.787Z,0.50
2023-04-13T00:44:16.450Z,0.38
2023-04-13T00:50:21.358Z,0.77
2023-04-13T00:56:27.464Z,0.30
2023-04-13T01:02:31.537Z,0.30
2023-04-13T01:08:38.803Z,0.30
2023-04-13T01:14:47.794Z,0.30
2023-04-13T01:20:52.732Z,0.50
2023-04-13T01:26:59.467Z,0.57
2023-04-13T01:33:05.004Z,0.40
2023-04-13T01:39:09.128Z,0.50
2023-04-13T01:45:16.380Z,0.63
2023-04-13T01:51:23.129Z,0.50
2023-04-13T01:57:28.375Z,0.50
2023-04-13T02:03:32.137Z,0.40
2023-04-13T02:09:37.249Z,0.82
2023-04-13T02:15:41.587Z,0.50
2023-04-13T02:21:44.971Z,0.75
2023-04-13T02:27:50.048Z,0.40
2023-04-13T02:33:53.760Z,0.60
2023-04-13T02:39:57.192Z,0.47
2023-04-13T02:46:02.066Z,0.57
2023-04-13T02:52:05.868Z,0.73
2023-04-13T02:58:10.447Z,0.80
2023-04-13T03:04:15.303Z,0.80
2023-04-13T03:10:19.354Z,0.50
2023-04-13T03:16:23.985Z,0.50
2023-04-13T03:22:30.718Z,0.60
2023-04-13T03:28:34.261Z,0.50
2023-04-13T03:34:40.637Z,0.60
2023-04-13T03:40:45.473Z,0.75
2023-04-13T03:46:48.935Z,0.70
2023-04-13T03:52:52.353Z,0.88
2023-04-13T03:58:57.406Z,1.20
2023-04-13T04:05:01.106Z,0.80
2023-04-13T04:11:04.989Z,0.57
2023-04-13T04:17:09.885Z,0.88
2023-04-13T04:23:15.304Z,0.90
2023-04-13T04:29:22.163Z,0.65
2023-04-13T04:35:33.067Z,1.10
2023-04-13T04:41:37.530Z,0.88
2023-04-13T04:47:43.391Z,0.88
2023-04-13T04:53:48.198Z,1.10
2023-04-13T04:59:51.912Z,1.20
2023-04-13T05:05:55.949Z,1.15
2023-04-13T05:12:01.030Z,1.38
2023-04-13T05:18:06.067Z,1.73
2023-04-13T05:24:11.440Z,1.40
2023-04-13T05:30:16.390Z,1.60
2023-04-13T05:36:19.806Z,1.35
2023-04-13T05:42:24.102Z,1.45
2023-04-13T05:48:30.504Z,1.55
2023-04-13T05:54:36.481Z,1.30
2023-04-13T06:00:40.137Z,1.85
2023-04-13T06:06:45.299Z,1.15
2023-04-13T06:12:48.985Z,1.20
2023-04-13T06:18:52.537Z,1.30
2023-04-13T06:24:57.617Z,1.25
2023-04-13T06:31:01.419Z,1.27
2023-04-13T06:37:05.179Z,1.60
2023-04-13T06:43:18.972Z,1.02
2023-04-13T06:49:30.307Z,1.13
2023-04-13T06:55:33.718Z,0.75
2023-04-13T07:01:38.552Z,0.90
2023-04-13T07:07:42.007Z,0.73
2023-04-13T07:13:45.789Z,1.20
2023-04-13T07:19:50.806Z,1.45
2023-04-13T07:25:54.337Z,1.02
2023-04-13T07:32:01.531Z,0.70
2023-04-13T07:38:06.307Z,1.13
2023-04-13T07:44:09.712Z,1.50
2023-04-13T07:50:13.403Z,1.00
2023-04-13T07:56:18.432Z,0.93
2023-04-13T08:02:22.759Z,0.77
2023-04-13T08:08:26.543Z,0.82
2023-04-13T08:14:31.557Z,1.17
2023-04-13T08:20:35.567Z,0.70
2023-04-13T08:26:39.148Z,0.82
2023-04-13T08:32:44.072Z,1.13
2023-04-13T08:38:47.950Z,0.70
2023-04-13T08:44:53.472Z,1.13
2023-04-13T08:50:59.589Z,1.10
2023-04-13T08:57:03.712Z,1.00
2023-04-13T09:03:12.681Z,0.80
2023-04-13T09:09:21.674Z,0.70
2023-04-13T09:15:25.312Z,0.90
2023-04-13T09:21:38.647Z,0.77
2023-04-13T09:27:43.404Z,0.80
2023-04-13T09:33:47.616Z,0.73
2023-04-13T09:39:51.408Z,0.63
2023-04-13T09:45:56.459Z,1.33
2023-04-13T09:51:59.935Z,0.90
2023-04-13T09:58:12.801Z,0.73
2023-04-13T10:04:17.645Z,0.50
2023-04-13T10:10:22.250Z,0.85
2023-04-13T10:16:38.205Z,0.68
2023-04-13T10:22:45.819Z,0.88
2023-04-13T10:28:49.701Z,0.60
2023-04-13T10:34:53.397Z,0.88
2023-04-13T10:40:58.685Z,0.90
2023-04-13T10:47:06.238Z,0.90
2023-04-13T10:53:09.822Z,1.08
2023-04-13T10:59:14.605Z,0.93
2023-04-13T11:05:19.539Z,0.63
2023-04-13T11:11:26.562Z,0.93
2023-04-13T11:17:31.389Z,0.88
2023-04-13T11:23:36.129Z,0.73
2023-04-13T11:29:39.694Z,0.60
2023-04-13T11:35:49.729Z,0.98
2023-04-13T11:41:53.648Z,1.25
2023-04-13T11:47:57.474Z,0.77
2023-04-13T11:54:02.565Z,0.90
2023-04-13T12:00:13.713Z,1.00
2023-04-13T12:06:17.821Z,0.60
2023-04-13T12:18:37.069Z,0.90
2023-04-13T12:24:42.629Z,0.80
2023-04-13T12:30:49.013Z,0.98
2023-04-13T12:36:52.453Z,1.10
2023-04-13T12:42:55.874Z,0.98
2023-04-13T12:49:00.994Z,0.90
2023-04-13T12:55:05.190Z,1.10
2023-04-13T13:01:08.808Z,1.58
2023-04-13T13:07:13.679Z,1.33
2023-04-13T13:13:17.252Z,0.80
2023-04-13T13:19:20.716Z,0.90
2023-04-13T13:25:25.809Z,1.10
2023-04-13T13:31:29.293Z,1.30
2023-04-13T13:37:32.838Z,0.80
2023-04-13T13:43:37.838Z,0.95
2023-04-13T13:49:41.561Z,0.88
2023-04-13T13:55:45.222Z,1.27
2023-04-13T14:01:50.137Z,0.93
2023-04-13T14:07:53.594Z,1.20
2023-04-13T14:13:57.027Z,1.35
2023-04-13T14:20:02.000Z,0.70
2023-04-13T14:26:05.794Z,1.00
2023-04-13T14:32:09.252Z,1.10
2023-04-13T14:38:14.051Z,0.90
2023-04-13T14:44:17.454Z,0.82
2023-04-13T14:50:21.292Z,1.20
2023-04-13T14:56:26.889Z,0.90
2023-04-13T15:02:30.490Z,0.88
2023-04-13T15:08:34.882Z,0.73
2023-04-13T15:14:40.667Z,1.13
2023-04-13T15:20:44.157Z,0.75
2023-04-13T15:26:47.556Z,0.80
2023-04-13T15:32:52.356Z,1.25
2023-04-13T15:38:55.775Z,1.25
2023-04-13T15:44:59.326Z,1.02
2023-04-13T15:51:04.463Z,0.75
2023-04-13T15:57:08.173Z,0.82
2023-04-13T16:03:11.873Z,1.20
2023-04-13T16:09:16.960Z,0.77
2023-04-13T16:15:20.421Z,0.90
2023-04-13T16:21:23.774Z,0.90
2023-04-13T16:27:28.623Z,0.90
2023-04-13T16:33:32.135Z,0.75
2023-04-13T16:39:35.873Z,0.80
2023-04-13T16:45:40.714Z,4.00
2023-04-13T16:51:44.193Z,1.17
2023-04-13T16:57:47.648Z,0.60
2023-04-13T17:03:53.086Z,1.35
2023-04-13T17:09:57.192Z,1.20
2023-04-13T17:16:01.392Z,1.20
2023-04-13T17:22:06.185Z,1.20
2023-04-13T17:28:09.691Z,1.38
2023-04-13T17:34:13.090Z,1.58
2023-04-13T17:40:17.885Z,1.25
2023-04-13T17:46:21.549Z,1.63
2023-04-13T17:52:25.008Z,1.65
2023-04-13T17:58:29.795Z,1.40
2023-04-13T18:04:33.619Z,0.98
2023-04-13T18:10:37.140Z,1.20
2023-04-13T18:16:42.022Z,1.20
2023-04-13T18:22:45.556Z,1.13
2023-04-13T18:28:49.219Z,2.10
2023-04-13T18:34:54.470Z,1.20
2023-04-13T18:40:58.069Z,1.38
2023-04-13T18:47:01.908Z,1.10
2023-04-13T18:53:06.918Z,2.25
2023-04-13T18:59:10.682Z,1.58
2023-04-13T19:05:14.433Z,1.50
2023-04-13T19:11:20.389Z,1.77
2023-04-13T19:17:27.186Z,1.40
2023-04-13T19:23:30.698Z,1.35
2023-04-13T19:29:36.123Z,1.35
2023-04-13T19:35:39.550Z,1.10
2023-04-13T19:41:43.111Z,1.63
2023-04-13T19:47:48.027Z,1.77
2023-04-13T19:53:52.674Z,1.55
2023-04-13T19:59:56.127Z,1.50
2023-04-13T20:06:01.338Z,1.40
2023-04-13T20:12:05.533Z,1.50
2023-04-13T20:18:09.133Z,1.67
2023-04-13T20:24:14.032Z,1.58
2023-04-13T20:30:17.817Z,2.00
2023-04-13T20:36:24.613Z,1.70
2023-04-13T20:42:29.719Z,1.58
2023-04-13T20:54:39.696Z,2.00
2023-04-13T21:00:44.954Z,2.03
2023-04-13T21:06:50.121Z,1.70
2023-04-13T21:12:53.789Z,3.22
2023-04-13T21:18:58.643Z,3.20
2023-04-13T21:25:02.342Z,2.28
2023-04-13T21:31:05.743Z,1.15
2023-04-13T21:37:10.572Z,1.67
2023-04-13T21:43:14.019Z,1.60
2023-04-13T21:49:17.714Z,1.45
2023-04-13T21:55:22.478Z,1.50
2023-04-13T22:01:26.162Z,1.48
2023-04-13T22:07:41.331Z,1.85
2023-04-13T22:13:47.483Z,1.60
2023-04-13T22:19:50.991Z,1.58
2023-04-13T22:25:58.590Z,1.63
2023-04-13T22:32:03.319Z,1.70
2023-04-13T22:38:06.848Z,1.95
2023-04-13T22:44:10.370Z,1.63
2023-04-13T22:50:15.155Z,1.98
2023-04-13T22:56:19.257Z,2.03
2023-04-13T23:02:22.815Z,1.90
2023-04-13T23:08:29.328Z,2.13
2023-04-13T23:14:32.873Z,2.00
2023-04-13T23:20:36.312Z,2.10
2023-04-13T23:26:41.102Z,1.88
2023-04-13T23:32:44.553Z,2.95
2023-04-13T23:38:47.973Z,2.45
2023-04-13T23:44:52.752Z,3.00
2023-04-13T23:50:57.310Z,2.28
2023-04-13T23:57:00.719Z,2.17
